sensor_id;sensor_type;location;lat;lon;timestamp;P1;durP1;ratioP1;P2;durP2;ratioP2
70818;SDS011;58439;51.046;13.692;2022-10-31T00:00:14;48.22;;;23.00;;
70818;SDS011;58439;51.046;13.692;2022-10-31T00:06:43;48.30;;;25.13;;
70818;SDS011;58439;51.046;13.692;2022-10-31T00:09:22;48.65;;;23.88;;
70818;SDS011;58439;51.046;13.692;2022-10-31T00:12:09;53.22;;;24.50;;
70818;SDS011;58439;51.046;13.692;2022-10-31T00:14:39;60.72;;;27.73;;
70818;SDS011;58439;51.046;13.692;2022-10-31T00:17:10;49.50;;;23.73;;
70818;SDS011;58439;51.046;13.692;2022-10-31T00:19:37;53.30;;;24.00;;
70818;SDS011;58439;51.046;13.692;2022-10-31T00:22:04;47.95;;;24.55;;
70818;SDS011;58439;51.046;13.692;2022-10-31T00:24:53;59.85;;;25.88;;
70818;SDS011;58439;51.046;13.692;2022-10-31T00:27:21;45.90;;;22.48;;
70818;SDS011;58439;51.046;13.692;2022-10-31T00:29:50;54.63;;;24.50;;
70818;SDS011;58439;51.046;13.692;2022-10-31T00:32:18;56.00;;;27.15;;
70818;SDS011;58439;51.046;13.692;2022-10-31T00:34:45;46.25;;;23.95;;
70818;SDS011;58439;51.046;13.692;2022-10-31T00:37:13;55.10;;;25.48;;
70818;SDS011;58439;51.046;13.692;2022-10-31T00:39:43;52.10;;;25.23;;
70818;SDS011;58439;51.046;13.692;2022-10-31T00:42:11;50.78;;;22.83;;
70818;SDS011;58439;51.046;13.692;2022-10-31T00:44:41;46.70;;;22.25;;
70818;SDS011;58439;51.046;13.692;2022-10-31T00:47:17;51.38;;;25.75;;
70818;SDS011;58439;51.046;13.692;2022-10-31T00:49:48;53.50;;;23.03;;
70818;SDS011;58439;51.046;13.692;2022-10-31T00:52:19;50.55;;;22.85;;
70818;SDS011;58439;51.046;13.692;2022-10-31T00:54:47;43.47;;;21.90;;
70818;SDS011;58439;51.046;13.692;2022-10-31T00:57:15;51.40;;;21.77;;
70818;SDS011;58439;51.046;13.692;2022-10-31T00:59:42;47.63;;;22.15;;
70818;SDS011;58439;51.046;13.692;2022-10-31T01:05:14;45.08;;;20.98;;
70818;SDS011;58439;51.046;13.692;2022-10-31T01:08:35;47.75;;;21.88;;
70818;SDS011;58439;51.046;13.692;2022-10-31T01:17:17;40.65;;;20.02;;
70818;SDS011;58439;51.046;13.692;2022-10-31T01:19:46;42.97;;;20.83;;
70818;SDS011;58439;51.046;13.692;2022-10-31T01:22:13;40.60;;;19.63;;
70818;SDS011;58439;51.046;13.692;2022-10-31T01:24:40;40.63;;;19.42;;
70818;SDS011;58439;51.046;13.692;2022-10-31T01:27:07;48.00;;;20.73;;
70818;SDS011;58439;51.046;13.692;2022-10-31T01:32:40;39.53;;;19.08;;
70818;SDS011;58439;51.046;13.692;2022-10-31T01:35:08;42.60;;;17.77;;
70818;SDS011;58439;51.046;13.692;2022-10-31T01:37:35;41.85;;;21.48;;
70818;SDS011;58439;51.046;13.692;2022-10-31T01:40:02;43.28;;;20.10;;
70818;SDS011;58439;51.046;13.692;2022-10-31T01:42:34;42.80;;;19.67;;
70818;SDS011;58439;51.046;13.692;2022-10-31T01:45:03;48.85;;;20.42;;
70818;SDS011;58439;51.046;13.692;2022-10-31T01:47:34;51.08;;;19.17;;
70818;SDS011;58439;51.046;13.692;2022-10-31T01:50:13;47.60;;;20.80;;
70818;SDS011;58439;51.046;13.692;2022-10-31T01:52:57;42.15;;;18.63;;
70818;SDS011;58439;51.046;13.692;2022-10-31T01:58:22;43.50;;;18.52;;
70818;SDS011;58439;51.046;13.692;2022-10-31T02:00:57;52.25;;;23.52;;
70818;SDS011;58439;51.046;13.692;2022-10-31T02:03:33;58.17;;;27.35;;
70818;SDS011;58439;51.046;13.692;2022-10-31T02:06:26;43.53;;;20.40;;
70818;SDS011;58439;51.046;13.692;2022-10-31T02:09:11;35.55;;;18.08;;
70818;SDS011;58439;51.046;13.692;2022-10-31T02:12:18;48.30;;;19.20;;
70818;SDS011;58439;51.046;13.692;2022-10-31T02:18:20;40.58;;;18.33;;
70818;SDS011;58439;51.046;13.692;2022-10-31T02:21:05;40.97;;;18.35;;
70818;SDS011;58439;51.046;13.692;2022-10-31T02:36:16;33.42;;;15.05;;
70818;SDS011;58439;51.046;13.692;2022-10-31T02:44:49;33.55;;;16.95;;
70818;SDS011;58439;51.046;13.692;2022-10-31T02:47:39;34.30;;;15.93;;
70818;SDS011;58439;51.046;13.692;2022-10-31T02:50:27;42.28;;;15.75;;
70818;SDS011;58439;51.046;13.692;2022-10-31T02:53:01;32.35;;;15.77;;
70818;SDS011;58439;51.046;13.692;2022-10-31T02:58:09;34.55;;;15.23;;
70818;SDS011;58439;51.046;13.692;2022-10-31T03:12:20;37.83;;;14.75;;
70818;SDS011;58439;51.046;13.692;2022-10-31T03:18:29;36.95;;;14.18;;
70818;SDS011;58439;51.046;13.692;2022-10-31T03:41:59;27.00;;;12.38;;
70818;SDS011;58439;51.046;13.692;2022-10-31T03:44:49;30.10;;;12.75;;
70818;SDS011;58439;51.046;13.692;2022-10-31T03:47:55;27.65;;;13.15;;
70818;SDS011;58439;51.046;13.692;2022-10-31T03:50:36;25.17;;;13.10;;
70818;SDS011;58439;51.046;13.692;2022-10-31T03:53:32;32.38;;;13.23;;
70818;SDS011;58439;51.046;13.692;2022-10-31T03:56:17;30.08;;;13.68;;
70818;SDS011;58439;51.046;13.692;2022-10-31T03:59:00;33.83;;;13.80;;
70818;SDS011;58439;51.046;13.692;2022-10-31T04:01:46;35.50;;;13.43;;
70818;SDS011;58439;51.046;13.692;2022-10-31T04:04:18;34.75;;;12.55;;
70818;SDS011;58439;51.046;13.692;2022-10-31T04:06:48;31.20;;;12.88;;
70818;SDS011;58439;51.046;13.692;2022-10-31T04:09:19;28.25;;;12.15;;
70818;SDS011;58439;51.046;13.692;2022-10-31T04:11:54;26.00;;;12.52;;
70818;SDS011;58439;51.046;13.692;2022-10-31T04:14:56;28.80;;;14.15;;
70818;SDS011;58439;51.046;13.692;2022-10-31T04:17:26;27.67;;;12.95;;
70818;SDS011;58439;51.046;13.692;2022-10-31T04:19:59;32.00;;;13.38;;
70818;SDS011;58439;51.046;13.692;2022-10-31T04:22:28;31.85;;;12.57;;
70818;SDS011;58439;51.046;13.692;2022-10-31T04:24:55;30.80;;;12.40;;
70818;SDS011;58439;51.046;13.692;2022-10-31T04:27:23;31.63;;;13.57;;
70818;SDS011;58439;51.046;13.692;2022-10-31T04:29:51;31.40;;;14.98;;
70818;SDS011;58439;51.046;13.692;2022-10-31T04:32:18;32.40;;;14.07;;
70818;SDS011;58439;51.046;13.692;2022-10-31T04:34:45;36.17;;;12.80;;
70818;SDS011;58439;51.046;13.692;2022-10-31T04:37:13;29.88;;;13.38;;
70818;SDS011;58439;51.046;13.692;2022-10-31T04:39:40;25.70;;;12.68;;
70818;SDS011;58439;51.046;13.692;2022-10-31T04:42:28;30.33;;;12.93;;
70818;SDS011;58439;51.046;13.692;2022-10-31T04:45:01;28.08;;;12.70;;
70818;SDS011;58439;51.046;13.692;2022-10-31T04:47:31;28.25;;;12.60;;
70818;SDS011;58439;51.046;13.692;2022-10-31T04:50:01;29.88;;;13.48;;
70818;SDS011;58439;51.046;13.692;2022-10-31T04:52:30;27.98;;;12.93;;
70818;SDS011;58439;51.046;13.692;2022-10-31T04:55:06;31.10;;;13.55;;
70818;SDS011;58439;51.046;13.692;2022-10-31T04:58:01;30.35;;;12.80;;
70818;SDS011;58439;51.046;13.692;2022-10-31T05:00:33;24.42;;;12.38;;
70818;SDS011;58439;51.046;13.692;2022-10-31T05:03:00;28.90;;;12.93;;
70818;SDS011;58439;51.046;13.692;2022-10-31T05:05:29;28.60;;;13.35;;
70818;SDS011;58439;51.046;13.692;2022-10-31T05:08:00;28.58;;;12.95;;
70818;SDS011;58439;51.046;13.692;2022-10-31T05:10:29;28.60;;;13.13;;
70818;SDS011;58439;51.046;13.692;2022-10-31T05:13:00;26.20;;;12.90;;
70818;SDS011;58439;51.046;13.692;2022-10-31T05:15:49;31.33;;;12.13;;
70818;SDS011;58439;51.046;13.692;2022-10-31T05:18:16;27.98;;;11.45;;
70818;SDS011;58439;51.046;13.692;2022-10-31T05:21:03;24.13;;;11.52;;
70818;SDS011;58439;51.046;13.692;2022-10-31T05:23:34;27.13;;;11.83;;
70818;SDS011;58439;51.046;13.692;2022-10-31T05:26:04;34.33;;;12.48;;
70818;SDS011;58439;51.046;13.692;2022-10-31T05:28:32;25.83;;;12.63;;
70818;SDS011;58439;51.046;13.692;2022-10-31T05:31:02;27.23;;;13.10;;
70818;SDS011;58439;51.046;13.692;2022-10-31T05:33:30;30.42;;;12.00;;
70818;SDS011;58439;51.046;13.692;2022-10-31T05:36:16;31.10;;;12.70;;
70818;SDS011;58439;51.046;13.692;2022-10-31T05:38:56;30.70;;;13.05;;
70818;SDS011;58439;51.046;13.692;2022-10-31T05:41:27;22.77;;;11.82;;
70818;SDS011;58439;51.046;13.692;2022-10-31T05:44:05;30.23;;;12.48;;
70818;SDS011;58439;51.046;13.692;2022-10-31T05:46:45;23.65;;;11.93;;
70818;SDS011;58439;51.046;13.692;2022-10-31T05:49:32;27.73;;;11.98;;
70818;SDS011;58439;51.046;13.692;2022-10-31T05:52:02;30.95;;;13.02;;
70818;SDS011;58439;51.046;13.692;2022-10-31T05:59:49;26.52;;;11.63;;
70818;SDS011;58439;51.046;13.692;2022-10-31T06:02:23;29.98;;;12.07;;
70818;SDS011;58439;51.046;13.692;2022-10-31T06:05:19;24.30;;;11.75;;
70818;SDS011;58439;51.046;13.692;2022-10-31T06:07:46;27.85;;;12.25;;
70818;SDS011;58439;51.046;13.692;2022-10-31T06:10:13;28.40;;;11.77;;
70818;SDS011;58439;51.046;13.692;2022-10-31T06:12:42;28.65;;;12.25;;
70818;SDS011;58439;51.046;13.692;2022-10-31T06:15:14;22.23;;;11.23;;
70818;SDS011;58439;51.046;13.692;2022-10-31T06:18:00;28.55;;;12.63;;
70818;SDS011;58439;51.046;13.692;2022-10-31T06:20:41;30.55;;;14.18;;
70818;SDS011;58439;51.046;13.692;2022-10-31T06:23:09;27.83;;;13.15;;
70818;SDS011;58439;51.046;13.692;2022-10-31T06:25:37;27.20;;;13.05;;
70818;SDS011;58439;51.046;13.692;2022-10-31T06:28:04;27.80;;;11.90;;
70818;SDS011;58439;51.046;13.692;2022-10-31T06:30:51;30.02;;;13.32;;
70818;SDS011;58439;51.046;13.692;2022-10-31T06:33:19;31.27;;;14.35;;
70818;SDS011;58439;51.046;13.692;2022-10-31T06:35:59;30.90;;;13.18;;
70818;SDS011;58439;51.046;13.692;2022-10-31T06:38:31;26.80;;;12.93;;
70818;SDS011;58439;51.046;13.692;2022-10-31T06:41:01;28.52;;;12.52;;
70818;SDS011;58439;51.046;13.692;2022-10-31T06:43:46;29.67;;;12.85;;
70818;SDS011;58439;51.046;13.692;2022-10-31T06:46:46;25.58;;;11.82;;
70818;SDS011;58439;51.046;13.692;2022-10-31T06:49:33;23.73;;;11.88;;
70818;SDS011;58439;51.046;13.692;2022-10-31T06:52:04;26.75;;;12.20;;
70818;SDS011;58439;51.046;13.692;2022-10-31T06:54:32;27.15;;;12.30;;
70818;SDS011;58439;51.046;13.692;2022-10-31T06:56:59;34.70;;;12.63;;
70818;SDS011;58439;51.046;13.692;2022-10-31T06:59:27;26.98;;;12.10;;
70818;SDS011;58439;51.046;13.692;2022-10-31T07:02:35;24.58;;;11.35;;
70818;SDS011;58439;51.046;13.692;2022-10-31T07:05:04;32.70;;;12.20;;
70818;SDS011;58439;51.046;13.692;2022-10-31T07:07:32;29.75;;;12.05;;
70818;SDS011;58439;51.046;13.692;2022-10-31T07:10:00;23.67;;;11.88;;
70818;SDS011;58439;51.046;13.692;2022-10-31T07:12:44;27.35;;;11.88;;
70818;SDS011;58439;51.046;13.692;2022-10-31T07:15:11;26.00;;;12.98;;
70818;SDS011;58439;51.046;13.692;2022-10-31T07:17:40;27.15;;;12.05;;
70818;SDS011;58439;51.046;13.692;2022-10-31T07:20:07;23.92;;;11.75;;
70818;SDS011;58439;51.046;13.692;2022-10-31T07:22:51;28.55;;;11.60;;
70818;SDS011;58439;51.046;13.692;2022-10-31T07:25:56;24.08;;;11.60;;
70818;SDS011;58439;51.046;13.692;2022-10-31T07:28:31;26.83;;;11.38;;
70818;SDS011;58439;51.046;13.692;2022-10-31T07:30:59;23.63;;;12.13;;
70818;SDS011;58439;51.046;13.692;2022-10-31T07:33:26;27.13;;;12.48;;
70818;SDS011;58439;51.046;13.692;2022-10-31T07:36:13;19.05;;;10.02;;
70818;SDS011;58439;51.046;13.692;2022-10-31T07:38:42;23.52;;;10.45;;
70818;SDS011;58439;51.046;13.692;2022-10-31T07:41:10;20.77;;;11.00;;
70818;SDS011;58439;51.046;13.692;2022-10-31T07:43:42;22.55;;;10.57;;
70818;SDS011;58439;51.046;13.692;2022-10-31T07:46:15;18.75;;;9.23;;
70818;SDS011;58439;51.046;13.692;2022-10-31T07:49:08;19.63;;;8.98;;
70818;SDS011;58439;51.046;13.692;2022-10-31T07:51:56;19.20;;;8.07;;
70818;SDS011;58439;51.046;13.692;2022-10-31T07:54:27;23.65;;;10.73;;
70818;SDS011;58439;51.046;13.692;2022-10-31T07:56:54;47.15;;;19.15;;
70818;SDS011;58439;51.046;13.692;2022-10-31T07:59:22;54.88;;;21.73;;
70818;SDS011;58439;51.046;13.692;2022-10-31T08:01:49;21.80;;;10.57;;
70818;SDS011;58439;51.046;13.692;2022-10-31T08:04:46;19.50;;;8.85;;
70818;SDS011;58439;51.046;13.692;2022-10-31T08:07:39;16.63;;;8.52;;
70818;SDS011;58439;51.046;13.692;2022-10-31T08:10:12;15.43;;;7.90;;
70818;SDS011;58439;51.046;13.692;2022-10-31T08:12:40;15.05;;;7.00;;
70818;SDS011;58439;51.046;13.692;2022-10-31T08:15:08;23.83;;;7.75;;
70818;SDS011;58439;51.046;13.692;2022-10-31T08:17:37;12.50;;;6.45;;
70818;SDS011;58439;51.046;13.692;2022-10-31T08:20:06;15.13;;;6.15;;
70818;SDS011;58439;51.046;13.692;2022-10-31T08:22:41;13.23;;;6.13;;
70818;SDS011;58439;51.046;13.692;2022-10-31T08:25:10;13.13;;;6.22;;
70818;SDS011;58439;51.046;13.692;2022-10-31T08:27:38;18.95;;;6.72;;
70818;SDS011;58439;51.046;13.692;2022-10-31T08:30:10;19.80;;;6.18;;
70818;SDS011;58439;51.046;13.692;2022-10-31T08:32:43;10.98;;;5.85;;
70818;SDS011;58439;51.046;13.692;2022-10-31T08:35:40;14.80;;;6.13;;
70818;SDS011;58439;51.046;13.692;2022-10-31T08:38:26;14.15;;;7.78;;
70818;SDS011;58439;51.046;13.692;2022-10-31T08:40:56;15.93;;;5.95;;
70818;SDS011;58439;51.046;13.692;2022-10-31T08:43:25;13.93;;;6.25;;
70818;SDS011;58439;51.046;13.692;2022-10-31T08:45:53;15.50;;;6.63;;
70818;SDS011;58439;51.046;13.692;2022-10-31T08:48:28;11.40;;;6.18;;
70818;SDS011;58439;51.046;13.692;2022-10-31T08:50:56;13.95;;;6.50;;
70818;SDS011;58439;51.046;13.692;2022-10-31T08:53:25;14.05;;;6.65;;
70818;SDS011;58439;51.046;13.692;2022-10-31T08:56:12;12.25;;;5.47;;
70818;SDS011;58439;51.046;13.692;2022-10-31T08:58:40;13.90;;;6.53;;
70818;SDS011;58439;51.046;13.692;2022-10-31T09:04:06;14.73;;;5.90;;
70818;SDS011;58439;51.046;13.692;2022-10-31T09:06:34;14.77;;;6.22;;
70818;SDS011;58439;51.046;13.692;2022-10-31T09:09:03;12.93;;;6.28;;
70818;SDS011;58439;51.046;13.692;2022-10-31T09:11:31;11.90;;;5.93;;
70818;SDS011;58439;51.046;13.692;2022-10-31T09:14:10;17.17;;;5.97;;
70818;SDS011;58439;51.046;13.692;2022-10-31T09:16:59;17.35;;;6.88;;
70818;SDS011;58439;51.046;13.692;2022-10-31T09:22:22;11.80;;;5.97;;
70818;SDS011;58439;51.046;13.692;2022-10-31T09:24:59;12.85;;;5.85;;
70818;SDS011;58439;51.046;13.692;2022-10-31T09:27:26;14.80;;;5.90;;
70818;SDS011;58439;51.046;13.692;2022-10-31T09:29:55;15.52;;;5.60;;
70818;SDS011;58439;51.046;13.692;2022-10-31T09:32:22;10.38;;;5.93;;
70818;SDS011;58439;51.046;13.692;2022-10-31T09:35:06;10.07;;;5.43;;
70818;SDS011;58439;51.046;13.692;2022-10-31T09:37:34;11.68;;;6.28;;
70818;SDS011;58439;51.046;13.692;2022-10-31T09:40:01;14.65;;;5.95;;
70818;SDS011;58439;51.046;13.692;2022-10-31T09:51:05;12.07;;;5.20;;
70818;SDS011;58439;51.046;13.692;2022-10-31T09:53:54;14.63;;;5.03;;
70818;SDS011;58439;51.046;13.692;2022-10-31T09:56:39;10.32;;;5.43;;
70818;SDS011;58439;51.046;13.692;2022-10-31T09:59:11;10.50;;;5.20;;
70818;SDS011;58439;51.046;13.692;2022-10-31T10:01:55;11.23;;;5.60;;
70818;SDS011;58439;51.046;13.692;2022-10-31T10:04:51;11.00;;;5.25;;
70818;SDS011;58439;51.046;13.692;2022-10-31T10:16:16;11.50;;;5.22;;
70818;SDS011;58439;51.046;13.692;2022-10-31T10:25:21;10.20;;;5.05;;
70818;SDS011;58439;51.046;13.692;2022-10-31T10:28:22;12.52;;;5.55;;
70818;SDS011;58439;51.046;13.692;2022-10-31T10:30:57;9.98;;;5.88;;
70818;SDS011;58439;51.046;13.692;2022-10-31T10:37:01;10.68;;;4.78;;
70818;SDS011;58439;51.046;13.692;2022-10-31T10:39:43;13.02;;;5.45;;
70818;SDS011;58439;51.046;13.692;2022-10-31T10:42:31;11.50;;;4.82;;
70818;SDS011;58439;51.046;13.692;2022-10-31T10:45:18;10.80;;;4.80;;
70818;SDS011;58439;51.046;13.692;2022-10-31T10:48:16;16.48;;;4.88;;
70818;SDS011;58439;51.046;13.692;2022-10-31T10:51:23;10.18;;;5.22;;
70818;SDS011;58439;51.046;13.692;2022-10-31T11:00:26;12.57;;;4.97;;
70818;SDS011;58439;51.046;13.692;2022-10-31T11:44:53;12.30;;;5.45;;
70818;SDS011;58439;51.046;13.692;2022-10-31T12:02:24;15.93;;;5.37;;
70818;SDS011;58439;51.046;13.692;2022-10-31T12:05:44;13.73;;;6.70;;
70818;SDS011;58439;51.046;13.692;2022-10-31T12:08:46;22.00;;;5.70;;
70818;SDS011;58439;51.046;13.692;2022-10-31T12:27:16;12.57;;;4.80;;
70818;SDS011;58439;51.046;13.692;2022-10-31T12:57:54;11.27;;;4.53;;
70818;SDS011;58439;51.046;13.692;2022-10-31T13:02:37;12.23;;;4.60;;
70818;SDS011;58439;51.046;13.692;2022-10-31T13:09:39;9.35;;;4.43;;
70818;SDS011;58439;51.046;13.692;2022-10-31T13:12:20;10.43;;;4.20;;
70818;SDS011;58439;51.046;13.692;2022-10-31T13:14:55;8.80;;;4.05;;
70818;SDS011;58439;51.046;13.692;2022-10-31T13:17:31;11.55;;;4.55;;
70818;SDS011;58439;51.046;13.692;2022-10-31T13:22:56;14.40;;;4.47;;
70818;SDS011;58439;51.046;13.692;2022-10-31T13:26:01;12.57;;;4.57;;
70818;SDS011;58439;51.046;13.692;2022-10-31T13:28:45;10.23;;;4.63;;
70818;SDS011;58439;51.046;13.692;2022-10-31T13:31:21;11.05;;;4.68;;
70818;SDS011;58439;51.046;13.692;2022-10-31T13:33:56;9.63;;;4.38;;
70818;SDS011;58439;51.046;13.692;2022-10-31T13:43:15;11.02;;;4.85;;
70818;SDS011;58439;51.046;13.692;2022-10-31T13:46:23;13.85;;;4.55;;
70818;SDS011;58439;51.046;13.692;2022-10-31T13:49:25;14.47;;;4.83;;
70818;SDS011;58439;51.046;13.692;2022-10-31T13:54:44;11.85;;;4.57;;
70818;SDS011;58439;51.046;13.692;2022-10-31T14:00:28;15.60;;;4.07;;
70818;SDS011;58439;51.046;13.692;2022-10-31T14:03:01;23.08;;;5.25;;
70818;SDS011;58439;51.046;13.692;2022-10-31T14:05:56;17.15;;;4.88;;
70818;SDS011;58439;51.046;13.692;2022-10-31T14:08:26;12.75;;;4.30;;
70818;SDS011;58439;51.046;13.692;2022-10-31T14:11:07;18.60;;;5.63;;
70818;SDS011;58439;51.046;13.692;2022-10-31T15:17:11;18.05;;;6.85;;
70818;SDS011;58439;51.046;13.692;2022-10-31T15:19:41;19.05;;;7.97;;
70818;SDS011;58439;51.046;13.692;2022-10-31T15:22:22;20.70;;;8.02;;
70818;SDS011;58439;51.046;13.692;2022-10-31T15:25:22;21.08;;;8.77;;
70818;SDS011;58439;51.046;13.692;2022-10-31T15:27:54;23.13;;;8.85;;
70818;SDS011;58439;51.046;13.692;2022-10-31T15:30:23;20.42;;;8.98;;
70818;SDS011;58439;51.046;13.692;2022-10-31T15:32:54;27.05;;;10.63;;
70818;SDS011;58439;51.046;13.692;2022-10-31T15:38:32;24.70;;;11.85;;
70818;SDS011;58439;51.046;13.692;2022-10-31T15:41:01;41.40;;;17.55;;
70818;SDS011;58439;51.046;13.692;2022-10-31T15:43:34;34.70;;;18.00;;
70818;SDS011;58439;51.046;13.692;2022-10-31T15:46:08;41.65;;;20.05;;
70818;SDS011;58439;51.046;13.692;2022-10-31T15:48:36;32.00;;;16.30;;
70818;SDS011;58439;51.046;13.692;2022-10-31T15:51:07;27.77;;;15.25;;
70818;SDS011;58439;51.046;13.692;2022-10-31T15:56:40;40.55;;;18.35;;
70818;SDS011;58439;51.046;13.692;2022-10-31T15:59:12;39.60;;;15.98;;
70818;SDS011;58439;51.046;13.692;2022-10-31T16:02:01;35.22;;;16.25;;
70818;SDS011;58439;51.046;13.692;2022-10-31T16:04:37;40.22;;;18.75;;
70818;SDS011;58439;51.046;13.692;2022-10-31T16:07:24;37.53;;;18.05;;
70818;SDS011;58439;51.046;13.692;2022-10-31T16:09:56;40.90;;;19.63;;
70818;SDS011;58439;51.046;13.692;2022-10-31T16:12:45;38.53;;;19.27;;
70818;SDS011;58439;51.046;13.692;2022-10-31T16:15:13;40.22;;;20.55;;
70818;SDS011;58439;51.046;13.692;2022-10-31T16:17:47;39.03;;;20.63;;
70818;SDS011;58439;51.046;13.692;2022-10-31T16:22:58;45.58;;;25.10;;
70818;SDS011;58439;51.046;13.692;2022-10-31T16:25:37;53.15;;;30.15;;
70818;SDS011;58439;51.046;13.692;2022-10-31T16:28:13;58.80;;;29.85;;
70818;SDS011;58439;51.046;13.692;2022-10-31T16:30:56;59.42;;;33.20;;
70818;SDS011;58439;51.046;13.692;2022-10-31T16:33:27;83.03;;;40.33;;
70818;SDS011;58439;51.046;13.692;2022-10-31T16:39:02;60.08;;;30.73;;
70818;SDS011;58439;51.046;13.692;2022-10-31T16:41:30;62.30;;;32.35;;
70818;SDS011;58439;51.046;13.692;2022-10-31T16:44:04;49.08;;;23.02;;
70818;SDS011;58439;51.046;13.692;2022-10-31T16:46:41;57.40;;;27.95;;
70818;SDS011;58439;51.046;13.692;2022-10-31T16:49:16;48.78;;;26.02;;
70818;SDS011;58439;51.046;13.692;2022-10-31T16:52:37;59.25;;;28.38;;
70818;SDS011;58439;51.046;13.692;2022-10-31T16:55:31;56.00;;;29.88;;
70818;SDS011;58439;51.046;13.692;2022-10-31T16:58:02;58.30;;;27.95;;
70818;SDS011;58439;51.046;13.692;2022-10-31T17:00:39;52.58;;;28.40;;
70818;SDS011;58439;51.046;13.692;2022-10-31T17:04:11;54.28;;;28.77;;
70818;SDS011;58439;51.046;13.692;2022-10-31T17:07:35;61.85;;;31.08;;
70818;SDS011;58439;51.046;13.692;2022-10-31T17:10:11;64.68;;;31.95;;
70818;SDS011;58439;51.046;13.692;2022-10-31T17:13:03;61.47;;;29.70;;
70818;SDS011;58439;51.046;13.692;2022-10-31T17:16:26;53.20;;;26.60;;
70818;SDS011;58439;51.046;13.692;2022-10-31T17:19:07;55.40;;;27.40;;
70818;SDS011;58439;51.046;13.692;2022-10-31T17:21:37;58.60;;;28.93;;
70818;SDS011;58439;51.046;13.692;2022-10-31T17:24:05;56.80;;;29.15;;
70818;SDS011;58439;51.046;13.692;2022-10-31T17:26:40;56.45;;;30.65;;
70818;SDS011;58439;51.046;13.692;2022-10-31T17:29:07;62.67;;;29.85;;
70818;SDS011;58439;51.046;13.692;2022-10-31T17:31:35;60.42;;;30.50;;
70818;SDS011;58439;51.046;13.692;2022-10-31T17:34:05;55.80;;;29.73;;
70818;SDS011;58439;51.046;13.692;2022-10-31T17:36:34;61.72;;;29.25;;
70818;SDS011;58439;51.046;13.692;2022-10-31T17:49:33;59.90;;;28.00;;
70818;SDS011;58439;51.046;13.692;2022-10-31T17:54:03;61.38;;;28.08;;
70818;SDS011;58439;51.046;13.692;2022-10-31T17:56:35;64.35;;;29.77;;
70818;SDS011;58439;51.046;13.692;2022-10-31T17:59:02;63.08;;;31.05;;
70818;SDS011;58439;51.046;13.692;2022-10-31T18:01:34;54.58;;;29.23;;
70818;SDS011;58439;51.046;13.692;2022-10-31T18:04:02;57.50;;;29.55;;
70818;SDS011;58439;51.046;13.692;2022-10-31T18:06:32;54.88;;;28.17;;
70818;SDS011;58439;51.046;13.692;2022-10-31T18:09:01;57.70;;;28.17;;
70818;SDS011;58439;51.046;13.692;2022-10-31T18:11:30;58.90;;;29.98;;
70818;SDS011;58439;51.046;13.692;2022-10-31T18:13:58;65.05;;;31.98;;
70818;SDS011;58439;51.046;13.692;2022-10-31T18:16:25;59.58;;;32.38;;
70818;SDS011;58439;51.046;13.692;2022-10-31T18:19:00;62.17;;;33.42;;
70818;SDS011;58439;51.046;13.692;2022-10-31T18:21:28;62.85;;;33.30;;
70818;SDS011;58439;51.046;13.692;2022-10-31T18:23:57;61.80;;;32.40;;
70818;SDS011;58439;51.046;13.692;2022-10-31T18:26:28;55.97;;;31.67;;
70818;SDS011;58439;51.046;13.692;2022-10-31T18:28:59;58.90;;;31.20;;
70818;SDS011;58439;51.046;13.692;2022-10-31T18:31:26;70.10;;;34.35;;
70818;SDS011;58439;51.046;13.692;2022-10-31T18:33:54;66.95;;;33.78;;
70818;SDS011;58439;51.046;13.692;2022-10-31T18:36:23;59.45;;;29.50;;
70818;SDS011;58439;51.046;13.692;2022-10-31T18:38:51;60.70;;;29.67;;
70818;SDS011;58439;51.046;13.692;2022-10-31T18:41:18;56.50;;;30.95;;
70818;SDS011;58439;51.046;13.692;2022-10-31T18:43:47;56.67;;;29.80;;
70818;SDS011;58439;51.046;13.692;2022-10-31T18:46:15;54.10;;;30.83;;
70818;SDS011;58439;51.046;13.692;2022-10-31T18:48:44;59.78;;;31.27;;
70818;SDS011;58439;51.046;13.692;2022-10-31T18:51:13;64.72;;;33.17;;
70818;SDS011;58439;51.046;13.692;2022-10-31T18:53:41;64.22;;;32.80;;
70818;SDS011;58439;51.046;13.692;2022-10-31T18:56:09;61.75;;;32.75;;
70818;SDS011;58439;51.046;13.692;2022-10-31T18:58:43;51.95;;;28.98;;
70818;SDS011;58439;51.046;13.692;2022-10-31T19:01:11;66.55;;;33.42;;
70818;SDS011;58439;51.046;13.692;2022-10-31T19:03:39;61.05;;;32.03;;
70818;SDS011;58439;51.046;13.692;2022-10-31T19:06:08;65.78;;;32.17;;
70818;SDS011;58439;51.046;13.692;2022-10-31T19:08:38;62.67;;;30.15;;
70818;SDS011;58439;51.046;13.692;2022-10-31T19:14:17;65.43;;;34.10;;
70818;SDS011;58439;51.046;13.692;2022-10-31T19:16:44;59.33;;;31.60;;
70818;SDS011;58439;51.046;13.692;2022-10-31T19:19:18;61.22;;;31.55;;
70818;SDS011;58439;51.046;13.692;2022-10-31T19:21:48;66.97;;;32.30;;
70818;SDS011;58439;51.046;13.692;2022-10-31T19:24:16;53.70;;;28.30;;
70818;SDS011;58439;51.046;13.692;2022-10-31T19:26:46;65.18;;;29.90;;
70818;SDS011;58439;51.046;13.692;2022-10-31T19:30:06;80.55;;;35.72;;
70818;SDS011;58439;51.046;13.692;2022-10-31T19:33:43;81.32;;;36.13;;
70818;SDS011;58439;51.046;13.692;2022-10-31T19:36:15;59.58;;;28.58;;
70818;SDS011;58439;51.046;13.692;2022-10-31T19:39:09;63.13;;;30.90;;
70818;SDS011;58439;51.046;13.692;2022-10-31T19:41:40;58.67;;;30.48;;
70818;SDS011;58439;51.046;13.692;2022-10-31T19:45:56;64.15;;;28.95;;
70818;SDS011;58439;51.046;13.692;2022-10-31T19:48:56;54.30;;;26.85;;
70818;SDS011;58439;51.046;13.692;2022-10-31T19:51:32;59.70;;;28.83;;
70818;SDS011;58439;51.046;13.692;2022-10-31T19:54:41;63.65;;;30.42;;
70818;SDS011;58439;51.046;13.692;2022-10-31T19:57:12;58.40;;;28.45;;
70818;SDS011;58439;51.046;13.692;2022-10-31T19:59:43;44.58;;;22.92;;
70818;SDS011;58439;51.046;13.692;2022-10-31T20:02:14;45.63;;;22.05;;
70818;SDS011;58439;51.046;13.692;2022-10-31T20:04:49;49.92;;;24.70;;
70818;SDS011;58439;51.046;13.692;2022-10-31T20:07:16;49.38;;;24.02;;
70818;SDS011;58439;51.046;13.692;2022-10-31T20:09:44;46.28;;;21.33;;
70818;SDS011;58439;51.046;13.692;2022-10-31T20:12:12;39.55;;;19.70;;
70818;SDS011;58439;51.046;13.692;2022-10-31T20:14:40;36.95;;;18.67;;
70818;SDS011;58439;51.046;13.692;2022-10-31T20:17:15;33.92;;;16.77;;
70818;SDS011;58439;51.046;13.692;2022-10-31T20:19:43;43.03;;;20.02;;
70818;SDS011;58439;51.046;13.692;2022-10-31T20:22:12;33.70;;;18.25;;
70818;SDS011;58439;51.046;13.692;2022-10-31T20:24:39;36.83;;;19.83;;
70818;SDS011;58439;51.046;13.692;2022-10-31T20:27:07;36.03;;;16.92;;
70818;SDS011;58439;51.046;13.692;2022-10-31T20:29:34;35.70;;;15.48;;
70818;SDS011;58439;51.046;13.692;2022-10-31T20:32:02;27.75;;;14.68;;
70818;SDS011;58439;51.046;13.692;2022-10-31T20:34:29;34.15;;;17.52;;
70818;SDS011;58439;51.046;13.692;2022-10-31T20:36:56;29.65;;;14.95;;
70818;SDS011;58439;51.046;13.692;2022-10-31T20:39:24;36.15;;;14.40;;
70818;SDS011;58439;51.046;13.692;2022-10-31T20:41:53;37.20;;;16.13;;